Time;durP1;ratioP1;P1;durP2;ratioP2;P2;SDS_P1;SDS_P2;PMS_P1;PMS_P2;Temp;Humidity;BMP_temperature;BMP_pressure;BME280_temperature;BME280_humidity;BME280_pressure;Samples;Min_cycle;Max_cycle;Signal;HPM_P1;HPM_P2
2022/12/17 13:08:19;;;;;;;24.73;14.80;;;;;;;;;;5071885;28;20359;-26
2022/12/17 13:10:46;;;;;;;27.60;15.17;;;;;;;;;;5061240;28;20286;-29
2022/12/17 13:13:19;;;;;;;26.40;15.50;;;;;;;;;;5071416;28;20207;-27
2022/12/17 13:15:47;;;;;;;26.83;15.77;;;;;;;;;;5076026;28;20247;-26
2022/12/17 13:18:24;;;;;;;24.57;15.03;;;;;;;;;;5090366;28;20670;-27
2022/12/17 13:21:02;;;;;;;27.20;15.50;;;;;;;;;;5076589;28;20559;-26
2022/12/17 13:23:35;;;;;;;27.17;15.97;;;;;;;;;;5072525;28;20201;-26
2022/12/17 13:26:14;;;;;;;27.97;14.53;;;;;;;;;;5061671;28;20205;-28
2022/12/17 13:28:41;;;;;;;27.67;15.03;;;;;;;;;;5070057;28;20280;-26
2022/12/17 13:31:16;;;;;;;25.50;13.60;;;;;;;;;;5079916;28;20225;-26
2022/12/17 13:33:47;;;;;;;28.83;14.73;;;;;;;;;;5071576;28;20205;-27
2022/12/17 13:36:17;;;;;;;25.43;13.77;;;;;;;;;;5066162;28;20210;-26
2022/12/17 13:38:47;;;;;;;23.07;14.10;;;;;;;;;;5060810;28;20236;-26
2022/12/17 13:41:15;;;;;;;25.17;14.93;;;;;;;;;;5076812;28;20228;-26
2022/12/17 13:43:45;;;;;;;28.90;17.00;;;;;;;;;;5066843;28;20220;-28
2022/12/17 13:46:22;;;;;;;28.20;15.67;;;;;;;;;;5083735;28;20197;-27
2022/12/17 13:48:55;;;;;;;26.33;15.73;;;;;;;;;;5071382;28;20237;-27
2022/12/17 13:51:23;;;;;;;26.83;15.40;;;;;;;;;;5062267;28;20235;-27
2022/12/17 13:53:53;;;;;;;24.90;14.97;;;;;;;;;;5084421;28;20300;-28
2022/12/17 13:56:24;;;;;;;31.43;16.07;;;;;;;;;;5070619;28;20425;-26
2022/12/17 13:58:52;;;;;;;25.37;14.57;;;;;;;;;;5061291;28;20284;-26
2022/12/17 14:01:20;;;;;;;27.53;15.33;;;;;;;;;;5079890;28;20517;-27
2022/12/17 14:03:51;;;;;;;24.80;14.23;;;;;;;;;;5091261;28;20265;-26
2022/12/17 14:06:20;;;;;;;27.83;14.47;;;;;;;;;;5061702;28;20206;-26
2022/12/17 14:08:49;;;;;;;28.80;15.83;;;;;;;;;;5080818;28;20269;-25
2022/12/17 14:14:02;;;;;;;24.27;15.67;;;;;;;;;;5069514;28;20689;-25
2022/12/17 14:16:30;;;;;;;31.43;17.03;;;;;;;;;;5070651;28;20201;-26
2022/12/17 14:18:58;;;;;;;31.93;17.13;;;;;;;;;;5070698;28;20655;-27
2022/12/17 14:21:27;;;;;;;26.07;14.40;;;;;;;;;;5064726;28;20217;-26
2022/12/17 14:23:55;;;;;;;28.90;15.90;;;;;;;;;;5070321;28;20204;-27
2022/12/17 14:26:22;;;;;;;28.80;16.23;;;;;;;;;;5072857;28;20666;-26
2022/12/17 14:28:50;;;;;;;29.73;14.50;;;;;;;;;;5073153;28;20651;-27
2022/12/17 14:31:19;;;;;;;30.20;15.97;;;;;;;;;;5074363;28;20217;-27
2022/12/17 14:33:46;;;;;;;33.83;17.67;;;;;;;;;;5064847;28;20206;-26
2022/12/17 14:36:19;;;;;;;26.83;16.50;;;;;;;;;;5060499;28;20202;-28
2022/12/17 14:38:52;;;;;;;27.83;16.37;;;;;;;;;;5072125;28;20197;-26
2022/12/17 14:44:04;;;;;;;125.67;48.00;;;;;;;;;;5067501;28;20346;-27
2022/12/17 14:46:32;;;;;;;51.67;24.43;;;;;;;;;;5078596;28;20566;-24
2022/12/17 14:49:00;;;;;;;27.47;14.97;;;;;;;;;;5070113;28;20212;-26
2022/12/17 14:51:29;;;;;;;26.93;15.77;;;;;;;;;;5060842;28;20229;-26
2022/12/17 14:54:06;;;;;;;28.70;15.73;;;;;;;;;;5075111;28;20212;-25
2022/12/17 14:56:33;;;;;;;31.17;16.00;;;;;;;;;;5066567;28;20201;-25
2022/12/17 14:59:01;;;;;;;28.60;16.80;;;;;;;;;;5076636;28;20207;-26
2022/12/17 15:01:29;;;;;;;30.00;15.73;;;;;;;;;;5072544;28;20221;-25
2022/12/17 15:03:56;;;;;;;29.40;16.50;;;;;;;;;;5071140;28;20209;-26
2022/12/17 15:06:23;;;;;;;29.17;17.03;;;;;;;;;;5063054;28;20639;-28
2022/12/17 15:08:52;;;;;;;28.23;15.93;;;;;;;;;;5057893;28;20199;-27
2022/12/17 15:11:21;;;;;;;34.93;17.67;;;;;;;;;;5078338;28;20221;-25
2022/12/17 15:13:49;;;;;;;31.83;17.60;;;;;;;;;;5074981;28;20455;-26
2022/12/17 15:16:16;;;;;;;30.63;17.27;;;;;;;;;;5069338;28;20204;-27
2022/12/17 15:18:43;;;;;;;31.67;16.87;;;;;;;;;;5070104;28;20205;-27
2022/12/17 15:21:11;;;;;;;27.93;15.13;;;;;;;;;;5067217;28;20690;-25
2022/12/17 15:23:39;;;;;;;30.73;17.33;;;;;;;;;;5068548;28;20312;-27
2022/12/17 15:26:07;;;;;;;33.27;16.70;;;;;;;;;;5082508;28;20205;-27
2022/12/17 15:28:35;;;;;;;31.70;16.70;;;;;;;;;;5071931;28;20303;-25
2022/12/17 15:31:02;;;;;;;31.23;15.60;;;;;;;;;;5069664;28;20392;-27
2022/12/17 15:33:29;;;;;;;35.33;17.93;;;;;;;;;;5070006;28;20209;-26
2022/12/17 15:35:58;;;;;;;31.10;17.33;;;;;;;;;;5065216;28;20219;-27
2022/12/17 15:38:25;;;;;;;30.57;17.10;;;;;;;;;;5068681;28;20197;-27
2022/12/17 15:40:52;;;;;;;29.37;16.50;;;;;;;;;;5065356;28;20307;-27
2022/12/17 15:43:18;;;;;;;33.03;16.70;;;;;;;;;;5064740;28;20206;-25
2022/12/17 15:45:47;;;;;;;34.93;18.33;;;;;;;;;;5085946;28;20651;-25
2022/12/17 15:48:15;;;;;;;29.77;17.07;;;;;;;;;;5070057;28;20225;-26
2022/12/17 15:50:43;;;;;;;31.37;16.40;;;;;;;;;;5062583;28;20232;-26
2022/12/17 15:53:10;;;;;;;34.03;17.30;;;;;;;;;;5077405;28;20205;-27
2022/12/17 15:55:37;;;;;;;31.83;18.10;;;;;;;;;;5069812;28;20197;-27
2022/12/17 15:58:05;;;;;;;33.93;18.87;;;;;;;;;;5062959;28;20507;-26
2022/12/17 16:00:32;;;;;;;27.80;16.70;;;;;;;;;;5084392;28;20225;-26
2022/12/17 16:03:00;;;;;;;36.63;18.07;;;;;;;;;;5070634;28;20233;-26
2022/12/17 16:05:28;;;;;;;35.00;19.20;;;;;;;;;;5063941;28;20648;-27
2022/12/17 16:07:57;;;;;;;34.87;18.60;;;;;;;;;;5061843;28;20735;-27
2022/12/17 16:10:24;;;;;;;32.87;18.30;;;;;;;;;;5070699;28;20547;-26
2022/12/17 16:12:51;;;;;;;34.50;18.37;;;;;;;;;;5059451;28;20198;-28
2022/12/17 16:15:19;;;;;;;39.63;19.43;;;;;;;;;;5086515;28;20211;-27
2022/12/17 16:17:46;;;;;;;42.87;19.40;;;;;;;;;;5089930;28;20196;-27
2022/12/17 16:20:14;;;;;;;39.40;19.60;;;;;;;;;;5074115;28;20214;-27
2022/12/17 16:22:42;;;;;;;37.63;21.07;;;;;;;;;;5059545;28;20201;-26
2022/12/17 16:25:09;;;;;;;31.07;17.10;;;;;;;;;;5072571;28;20209;-26
2022/12/17 16:27:36;;;;;;;39.97;20.53;;;;;;;;;;5069231;28;20710;-26
2022/12/17 16:30:03;;;;;;;42.03;21.03;;;;;;;;;;5080884;28;20213;-27
2022/12/17 16:32:32;;;;;;;44.67;21.97;;;;;;;;;;5073195;28;20237;-27
2022/12/17 16:34:59;;;;;;;35.03;19.97;;;;;;;;;;5069467;28;20259;-26
2022/12/17 16:37:28;;;;;;;36.73;19.70;;;;;;;;;;5083259;28;20494;-26
2022/12/17 16:39:55;;;;;;;35.87;20.07;;;;;;;;;;5071497;28;20205;-25
2022/12/17 16:42:23;;;;;;;38.83;20.23;;;;;;;;;;5067317;28;20693;-27
2022/12/17 16:44:50;;;;;;;37.43;20.63;;;;;;;;;;5084972;28;20200;-25
2022/12/17 16:47:17;;;;;;;37.17;19.30;;;;;;;;;;5076474;28;20240;-28
2022/12/17 16:49:44;;;;;;;40.00;20.00;;;;;;;;;;5072601;28;20509;-27
2022/12/17 16:52:11;;;;;;;33.63;18.70;;;;;;;;;;5057140;28;20551;-26
2022/12/17 16:54:40;;;;;;;36.13;19.37;;;;;;;;;;5071622;28;20224;-26
2022/12/17 16:57:07;;;;;;;42.63;18.77;;;;;;;;;;5066948;28;20212;-26
2022/12/17 16:59:34;;;;;;;37.63;19.47;;;;;;;;;;5079126;28;20665;-26
2022/12/17 17:02:01;;;;;;;42.97;20.77;;;;;;;;;;5086905;28;20225;-24
2022/12/17 17:04:29;;;;;;;41.10;19.93;;;;;;;;;;5093430;28;20521;-25
2022/12/17 17:06:57;;;;;;;40.17;19.43;;;;;;;;;;5077614;28;20208;-28
2022/12/17 17:09:24;;;;;;;36.60;19.37;;;;;;;;;;5075416;28;20229;-26
2022/12/17 17:11:55;;;;;;;35.77;20.23;;;;;;;;;;5068749;28;20231;-27
2022/12/17 17:14:22;;;;;;;41.60;18.60;;;;;;;;;;5065980;28;20209;-27
2022/12/17 17:16:49;;;;;;;46.70;21.43;;;;;;;;;;5072279;28;20575;-26
2022/12/17 17:19:17;;;;;;;44.03;22.63;;;;;;;;;;5073637;28;20201;-27
2022/12/17 17:21:50;;;;;;;51.47;21.47;;;;;;;;;;5071835;28;20294;-25
2022/12/17 17:24:19;;;;;;;40.73;18.83;;;;;;;;;;5060807;28;20218;-25
2022/12/17 17:26:47;;;;;;;44.90;21.33;;;;;;;;;;5062072;28;20205;-27
2022/12/17 17:29:15;;;;;;;39.80;19.30;;;;;;;;;;5076526;28;20229;-26
2022/12/17 17:31:42;;;;;;;45.57;22.47;;;;;;;;;;5089626;28;20232;-26
2022/12/17 17:34:10;;;;;;;42.80;21.37;;;;;;;;;;5072706;28;20208;-26
2022/12/17 17:36:37;;;;;;;45.60;20.83;;;;;;;;;;5066778;28;20291;-26
2022/12/17 17:39:05;;;;;;;39.17;18.43;;;;;;;;;;5074829;28;20215;-26
2022/12/17 17:41:33;;;;;;;41.30;17.93;;;;;;;;;;5080735;28;20217;-26
2022/12/17 17:44:02;;;;;;;44.77;20.50;;;;;;;;;;5070340;28;20216;-26
2022/12/17 17:46:31;;;;;;;43.73;20.53;;;;;;;;;;5083776;28;20209;-27
2022/12/17 17:48:59;;;;;;;35.10;18.17;;;;;;;;;;5066519;28;20743;-27
2022/12/17 17:51:27;;;;;;;32.17;14.60;;;;;;;;;;5058603;28;20222;-27
2022/12/17 17:53:55;;;;;;;32.63;16.40;;;;;;;;;;5054637;28;20210;-28
2022/12/17 17:56:23;;;;;;;36.43;17.77;;;;;;;;;;5046256;28;20734;-26
2022/12/17 17:58:52;;;;;;;41.90;17.37;;;;;;;;;;5065724;28;20212;-26
2022/12/17 18:01:20;;;;;;;33.60;17.57;;;;;;;;;;5059451;28;20233;-26
2022/12/17 18:03:49;;;;;;;33.27;17.63;;;;;;;;;;5073755;28;20202;-25
2022/12/17 18:06:16;;;;;;;34.63;17.57;;;;;;;;;;5065383;28;20205;-26
2022/12/17 18:08:43;;;;;;;40.27;19.23;;;;;;;;;;5061136;28;20219;-25
2022/12/17 18:11:11;;;;;;;39.23;20.47;;;;;;;;;;5058552;28;20257;-25
2022/12/17 18:13:56;;;;;;;43.50;19.40;;;;;;;;;;5070011;28;20243;-26
2022/12/17 18:16:25;;;;;;;41.53;21.13;;;;;;;;;;5068268;28;20205;-27
2022/12/17 18:18:54;;;;;;;40.87;19.43;;;;;;;;;;5070997;28;20205;-27
2022/12/17 18:21:21;;;;;;;40.07;19.70;;;;;;;;;;5052805;28;20222;-25
2022/12/17 18:23:50;;;;;;;40.73;19.33;;;;;;;;;;5067101;28;20224;-27
2022/12/17 18:26:18;;;;;;;42.03;20.93;;;;;;;;;;5063387;28;20711;-26
2022/12/17 18:28:46;;;;;;;42.23;20.77;;;;;;;;;;5062416;28;20312;-27
2022/12/17 18:31:14;;;;;;;36.60;18.03;;;;;;;;;;5065718;28;20721;-25
2022/12/17 18:33:42;;;;;;;41.03;19.20;;;;;;;;;;5066781;28;20209;-25
2022/12/17 18:36:12;;;;;;;45.17;19.47;;;;;;;;;;5055651;28;20205;-26
2022/12/17 18:38:40;;;;;;;39.60;19.87;;;;;;;;;;5060309;28;20280;-29
2022/12/17 18:43:21;;;;;;;35.13;17.97;;;;;;;;;;5071275;28;20231;-26
2022/12/17 18:43:55;;;;;;;31.07;14.77;;;;;;;;;;5060106;28;20213;-27
2022/12/17 18:46:22;;;;;;;37.20;18.73;;;;;;;;;;5075183;28;20573;-28
2022/12/17 18:48:52;;;;;;;32.10;16.80;;;;;;;;;;5065134;28;20223;-25
2022/12/17 18:51:20;;;;;;;34.20;18.10;;;;;;;;;;5055198;28;20221;-25
2022/12/17 18:53:47;;;;;;;34.37;17.97;;;;;;;;;;5065515;28;20209;-27
2022/12/17 18:56:14;;;;;;;32.83;18.77;;;;;;;;;;5059723;28;20194;-27
2022/12/17 18:58:42;;;;;;;30.63;17.43;;;;;;;;;;5066499;28;20651;-25
2022/12/17 19:01:18;;;;;;;35.23;17.90;;;;;;;;;;5067882;28;20236;-26
2022/12/17 19:03:45;;;;;;;36.27;18.23;;;;;;;;;;5064834;28;20557;-25
2022/12/17 19:06:12;;;;;;;35.97;19.37;;;;;;;;;;5069629;28;20212;-26
2022/12/17 19:08:42;;;;;;;31.13;16.33;;;;;;;;;;5068783;28;20225;-25
2022/12/17 19:11:10;;;;;;;42.33;20.40;;;;;;;;;;5061989;28;20218;-24
2022/12/17 19:13:37;;;;;;;40.60;18.80;;;;;;;;;;5069295;28;20209;-25
2022/12/17 19:16:05;;;;;;;43.47;19.83;;;;;;;;;;5065856;28;20197;-28
2022/12/17 19:18:32;;;;;;;43.40;20.53;;;;;;;;;;5063742;28;20190;-27
2022/12/17 19:21:00;;;;;;;46.87;21.93;;;;;;;;;;5055666;28;20221;-27
2022/12/17 19:23:28;;;;;;;38.23;19.17;;;;;;;;;;5065212;28;20635;-25
2022/12/17 19:25:57;;;;;;;44.67;22.60;;;;;;;;;;5060194;28;20217;-26
2022/12/17 19:28:24;;;;;;;53.17;21.80;;;;;;;;;;5061631;28;20570;-28
2022/12/17 19:30:56;;;;;;;47.47;21.07;;;;;;;;;;5063782;28;20428;-27
2022/12/17 19:33:24;;;;;;;57.27;24.90;;;;;;;;;;5061715;28;20197;-26
2022/12/17 19:36:06;;;;;;;49.73;21.57;;;;;;;;;;5062591;28;20197;-27
2022/12/17 19:38:34;;;;;;;53.07;20.53;;;;;;;;;;5060916;28;20205;-27
2022/12/17 19:41:13;;;;;;;46.40;21.23;;;;;;;;;;5060209;28;20266;-27
2022/12/17 19:43:46;;;;;;;48.63;23.13;;;;;;;;;;5066374;28;20208;-26
2022/12/17 19:46:18;;;;;;;40.97;18.57;;;;;;;;;;5063846;28;20198;-26
2022/12/17 19:48:46;;;;;;;43.83;21.63;;;;;;;;;;5060879;28;20453;-25
2022/12/17 19:51:37;;;;;;;47.80;21.33;;;;;;;;;;5057959;28;20229;-28
2022/12/17 19:54:04;;;;;;;42.33;19.10;;;;;;;;;;5060061;28;20248;-25
2022/12/17 19:56:33;;;;;;;41.27;21.27;;;;;;;;;;5061683;28;20212;-28
2022/12/17 19:59:02;;;;;;;47.03;21.90;;;;;;;;;;5061732;28;20209;-26
2022/12/17 20:01:30;;;;;;;46.83;21.57;;;;;;;;;;5071309;28;20228;-26
2022/12/17 20:04:00;;;;;;;37.13;19.30;;;;;;;;;;5066090;28;20721;-25
2022/12/17 20:06:28;;;;;;;44.47;21.03;;;;;;;;;;5063234;28;20210;-25
2022/12/17 20:08:55;;;;;;;50.43;23.77;;;;;;;;;;5081114;28;20227;-26
2022/12/17 20:11:35;;;;;;;50.43;21.93;;;;;;;;;;5063121;28;20620;-26
2022/12/17 20:14:05;;;;;;;46.77;22.00;;;;;;;;;;5069298;28;20382;-26
2022/12/17 20:16:33;;;;;;;44.33;20.93;;;;;;;;;;5070021;28;20211;-26
2022/12/17 20:19:01;;;;;;;44.73;19.50;;;;;;;;;;5064256;28;20201;-26
2022/12/17 20:21:28;;;;;;;45.00;21.77;;;;;;;;;;5058225;28;20221;-27
2022/12/17 20:23:55;;;;;;;43.20;20.67;;;;;;;;;;5071990;28;20201;-26
2022/12/17 20:26:22;;;;;;;48.90;21.30;;;;;;;;;;5062728;28;20228;-27
2022/12/17 20:28:50;;;;;;;45.30;20.00;;;;;;;;;;5063345;28;20206;-25
2022/12/17 20:31:18;;;;;;;41.00;19.13;;;;;;;;;;5073232;28;20221;-25
2022/12/17 20:33:46;;;;;;;39.53;17.33;;;;;;;;;;5068327;28;20293;-26
2022/12/17 20:36:14;;;;;;;41.93;20.03;;;;;;;;;;5060572;28;20296;-26
2022/12/17 20:38:42;;;;;;;40.57;18.57;;;;;;;;;;5067483;28;20201;-25
2022/12/17 20:41:10;;;;;;;30.77;16.60;;;;;;;;;;5066071;28;20722;-26
2022/12/17 20:43:37;;;;;;;43.67;22.13;;;;;;;;;;5070412;28;20271;-27
2022/12/17 20:46:04;;;;;;;38.07;19.10;;;;;;;;;;5079911;28;20610;-27
2022/12/17 20:48:33;;;;;;;37.93;20.10;;;;;;;;;;5067958;28;20225;-27
2022/12/17 20:51:19;;;;;;;39.83;18.80;;;;;;;;;;5059573;28;20714;-26
2022/12/17 20:53:47;;;;;;;34.37;17.10;;;;;;;;;;5067680;28;20651;-27
2022/12/17 20:56:15;;;;;;;38.00;19.73;;;;;;;;;;5067896;28;20224;-27
2022/12/17 20:58:52;;;;;;;36.10;19.57;;;;;;;;;;5070971;28;20807;-27
2022/12/17 21:06:53;;;;;;;37.63;18.43;;;;;;;;;;5063591;28;20288;-32
2022/12/17 21:09:21;;;;;;;33.43;17.87;;;;;;;;;;5066642;28;20236;-32
2022/12/17 21:11:48;;;;;;;35.77;18.33;;;;;;;;;;5062851;28;20589;-34
2022/12/17 21:14:17;;;;;;;38.57;18.33;;;;;;;;;;5066225;28;20216;-30
2022/12/17 21:16:45;;;;;;;35.57;18.23;;;;;;;;;;5070040;28;20216;-34
2022/12/17 21:19:13;;;;;;;41.37;18.53;;;;;;;;;;5068576;28;20631;-34
2022/12/17 21:21:40;;;;;;;40.97;18.73;;;;;;;;;;5066288;28;20232;-31
2022/12/17 21:24:09;;;;;;;38.60;18.20;;;;;;;;;;5070624;28;20205;-33
2022/12/17 21:26:37;;;;;;;51.50;19.30;;;;;;;;;;5067246;28;20233;-34
2022/12/17 21:29:05;;;;;;;44.43;19.90;;;;;;;;;;5067184;28;20233;-29
2022/12/17 21:31:34;;;;;;;40.50;19.80;;;;;;;;;;5062658;28;20316;-31
2022/12/17 21:34:01;;;;;;;37.17;17.43;;;;;;;;;;5065390;28;20282;-30
2022/12/17 21:36:29;;;;;;;38.03;19.10;;;;;;;;;;5060285;28;20682;-37
2022/12/17 21:38:56;;;;;;;34.33;17.03;;;;;;;;;;5062348;28;20209;-32
2022/12/17 21:41:26;;;;;;;41.03;19.23;;;;;;;;;;5060917;28;20316;-33
2022/12/17 21:43:54;;;;;;;36.73;20.07;;;;;;;;;;5063446;28;20224;-31
2022/12/17 21:46:21;;;;;;;38.43;18.17;;;;;;;;;;5060320;28;20214;-30
2022/12/17 21:48:48;;;;;;;37.53;17.53;;;;;;;;;;5067383;28;20292;-31
2022/12/17 21:51:15;;;;;;;33.63;19.23;;;;;;;;;;5074516;28;20308;-30
2022/12/17 21:53:46;;;;;;;31.60;16.53;;;;;;;;;;5070693;28;20212;-31
2022/12/17 21:56:14;;;;;;;32.87;16.37;;;;;;;;;;5060030;28;20217;-32
2022/12/17 21:58:46;;;;;;;46.97;19.33;;;;;;;;;;5060068;28;20926;-35
2022/12/17 22:01:14;;;;;;;30.53;16.40;;;;;;;;;;5071529;28;20225;-31
2022/12/17 22:03:41;;;;;;;36.40;16.60;;;;;;;;;;5070122;28;20201;-33
2022/12/17 22:06:09;;;;;;;38.60;18.63;;;;;;;;;;5062240;28;20251;-35
2022/12/17 22:08:37;;;;;;;35.17;18.33;;;;;;;;;;5149332;22;20260;-26
2022/12/17 22:11:09;;;;;;;39.53;18.83;;;;;;;;;;5068900;28;20236;-24
2022/12/17 22:16:24;;;;;;;37.23;17.60;;;;;;;;;;5074115;28;20208;-29
2022/12/17 22:18:51;;;;;;;40.37;19.43;;;;;;;;;;5063894;28;20293;-25
2022/12/17 22:21:18;;;;;;;42.47;17.93;;;;;;;;;;5060321;28;20237;-28
2022/12/17 22:23:47;;;;;;;36.10;16.90;;;;;;;;;;5066389;28;20201;-30
2022/12/17 22:26:15;;;;;;;34.57;16.30;;;;;;;;;;5062884;28;20228;-25
2022/12/17 22:28:42;;;;;;;40.83;18.70;;;;;;;;;;5065688;28;20201;-25
2022/12/17 22:33:58;;;;;;;33.90;14.93;;;;;;;;;;5066673;28;20208;-27
2022/12/17 22:36:25;;;;;;;37.23;17.67;;;;;;;;;;5074168;28;20304;-28
2022/12/17 22:38:52;;;;;;;40.93;16.80;;;;;;;;;;5073612;28;20204;-29
2022/12/17 22:44:01;;;;;;;38.93;17.07;;;;;;;;;;5065808;28;20284;-25
2022/12/17 22:46:30;;;;;;;37.50;16.83;;;;;;;;;;5072778;28;20247;-27
2022/12/17 22:48:59;;;;;;;35.07;16.97;;;;;;;;;;5063792;28;20212;-27
2022/12/17 22:51:26;;;;;;;33.47;14.97;;;;;;;;;;5063438;28;20232;-29
2022/12/17 22:53:54;;;;;;;33.37;16.50;;;;;;;;;;5065457;28;20223;-27
2022/12/17 22:56:21;;;;;;;40.50;18.73;;;;;;;;;;5073067;28;20207;-26
2022/12/17 22:58:48;;;;;;;35.50;16.70;;;;;;;;;;5071593;28;20202;-28
2022/12/17 23:01:15;;;;;;;37.53;17.00;;;;;;;;;;5083185;28;20235;-28
2022/12/17 23:03:42;;;;;;;40.50;18.13;;;;;;;;;;5064158;28;20220;-28
2022/12/17 23:06:12;;;;;;;42.43;19.03;;;;;;;;;;5064255;28;20209;-27
2022/12/17 23:08:39;;;;;;;34.57;16.10;;;;;;;;;;5071843;28;20218;-27
2022/12/17 23:11:07;;;;;;;30.20;14.83;;;;;;;;;;5058101;28;20232;-28
2022/12/17 23:13:34;;;;;;;36.87;17.20;;;;;;;;;;5061302;28;20205;-27
2022/12/17 23:16:01;;;;;;;31.00;14.50;;;;;;;;;;5056071;28;20208;-26
2022/12/17 23:18:29;;;;;;;31.00;16.33;;;;;;;;;;5063325;28;20229;-30
2022/12/17 23:20:56;;;;;;;30.33;15.83;;;;;;;;;;5064790;28;20218;-27
2022/12/17 23:23:35;;;;;;;36.07;16.93;;;;;;;;;;5065376;28;20214;-24
2022/12/17 23:26:07;;;;;;;27.97;13.77;;;;;;;;;;5070800;28;20209;-24
2022/12/17 23:28:34;;;;;;;25.13;14.67;;;;;;;;;;5064329;28;20209;-25
2022/12/17 23:31:06;;;;;;;27.93;12.83;;;;;;;;;;5077187;28;20232;-23
2022/12/17 23:33:33;;;;;;;30.40;13.93;;;;;;;;;;5071804;28;20398;-27
2022/12/17 23:36:05;;;;;;;25.53;13.80;;;;;;;;;;5070083;28;20202;-28
2022/12/17 23:38:32;;;;;;;28.60;13.77;;;;;;;;;;5067117;28;20213;-26
2022/12/17 23:41:04;;;;;;;41.87;17.23;;;;;;;;;;5073381;28;20217;-27
2022/12/17 23:43:31;;;;;;;33.80;15.90;;;;;;;;;;5072440;28;20216;-26
2022/12/17 23:45:58;;;;;;;36.10;17.93;;;;;;;;;;5076807;28;20317;-24
2022/12/17 23:48:29;;;;;;;43.20;16.40;;;;;;;;;;5073117;28;20216;-25
2022/12/17 23:50:56;;;;;;;27.30;14.03;;;;;;;;;;5070007;28;20229;-25
2022/12/17 23:53:23;;;;;;;29.60;15.17;;;;;;;;;;5072341;28;20215;-29
2022/12/17 23:55:50;;;;;;;30.53;14.50;;;;;;;;;;5076760;28;20219;-25
2022/12/17 23:58:19;;;;;;;32.23;16.20;;;;;;;;;;5070380;28;20235;-26
